sensor_id;sensor_type;location;lat;lon;timestamp;temperature;humidity
37518;DHT22;23366;52.498;13.446;2023-02-15T00:01:45;4.80;99.90
37518;DHT22;23366;52.498;13.446;2023-02-15T00:04:13;4.80;99.90
37518;DHT22;23366;52.498;13.446;2023-02-15T00:06:39;4.80;99.90
37518;DHT22;23366;52.498;13.446;2023-02-15T00:09:05;4.80;99.90
37518;DHT22;23366;52.498;13.446;2023-02-15T00:11:31;4.80;99.90
37518;DHT22;23366;52.498;13.446;2023-02-15T00:14:11;4.70;99.90
37518;DHT22;23366;52.498;13.446;2023-02-15T00:16:38;4.70;99.90
37518;DHT22;23366;52.498;13.446;2023-02-15T00:19:04;4.70;99.90
37518;DHT22;23366;52.498;13.446;2023-02-15T00:21:32;4.70;99.90
37518;DHT22;23366;52.498;13.446;2023-02-15T00:23:59;4.60;99.90
37518;DHT22;23366;52.498;13.446;2023-02-15T00:26:25;4.60;99.90
37518;DHT22;23366;52.498;13.446;2023-02-15T00:28:51;4.60;99.90
37518;DHT22;23366;52.498;13.446;2023-02-15T00:31:18;4.60;99.90
37518;DHT22;23366;52.498;13.446;2023-02-15T00:33:43;4.50;99.90
37518;DHT22;23366;52.498;13.446;2023-02-15T00:36:09;4.50;99.90
37518;DHT22;23366;52.498;13.446;2023-02-15T00:38:36;4.50;99.90
37518;DHT22;23366;52.498;13.446;2023-02-15T00:41:03;4.50;99.90
37518;DHT22;23366;52.498;13.446;2023-02-15T00:43:30;4.50;99.90
37518;DHT22;23366;52.498;13.446;2023-02-15T00:45:56;4.40;99.90
37518;DHT22;23366;52.498;13.446;2023-02-15T00:48:22;4.40;99.90
37518;DHT22;23366;52.498;13.446;2023-02-15T00:50:53;4.40;99.90
37518;DHT22;23366;52.498;13.446;2023-02-15T00:53:19;4.30;99.90
37518;DHT22;23366;52.498;13.446;2023-02-15T00:55:45;4.30;99.90
37518;DHT22;23366;52.498;13.446;2023-02-15T00:58:11;4.30;99.90
37518;DHT22;23366;52.498;13.446;2023-02-15T01:00:38;4.40;99.90
37518;DHT22;23366;52.498;13.446;2023-02-15T01:03:05;4.30;99.90
37518;DHT22;23366;52.498;13.446;2023-02-15T01:05:31;4.40;99.90
37518;DHT22;23366;52.498;13.446;2023-02-15T01:07:57;4.40;99.90
37518;DHT22;23366;52.498;13.446;2023-02-15T01:10:23;4.30;99.90
37518;DHT22;23366;52.498;13.446;2023-02-15T01:12:50;4.30;99.90
37518;DHT22;23366;52.498;13.446;2023-02-15T01:15:16;4.30;99.90
37518;DHT22;23366;52.498;13.446;2023-02-15T01:17:42;4.30;99.90
37518;DHT22;23366;52.498;13.446;2023-02-15T01:20:09;4.30;99.90
37518;DHT22;23366;52.498;13.446;2023-02-15T01:22:35;4.30;99.90
37518;DHT22;23366;52.498;13.446;2023-02-15T01:25:01;4.20;99.90
37518;DHT22;23366;52.498;13.446;2023-02-15T01:27:26;4.30;99.90
37518;DHT22;23366;52.498;13.446;2023-02-15T01:29:52;4.20;99.90
37518;DHT22;23366;52.498;13.446;2023-02-15T01:32:17;4.20;99.90
37518;DHT22;23366;52.498;13.446;2023-02-15T01:34:43;4.20;99.90
37518;DHT22;23366;52.498;13.446;2023-02-15T01:37:08;4.20;99.90
37518;DHT22;23366;52.498;13.446;2023-02-15T01:39:33;4.20;99.90
37518;DHT22;23366;52.498;13.446;2023-02-15T01:41:59;4.20;99.90
37518;DHT22;23366;52.498;13.446;2023-02-15T01:44:51;4.20;99.90
37518;DHT22;23366;52.498;13.446;2023-02-15T01:50:23;4.10;99.90
37518;DHT22;23366;52.498;13.446;2023-02-15T01:52:57;4.10;99.90
37518;DHT22;23366;52.498;13.446;2023-02-15T01:55:25;4.10;99.90
37518;DHT22;23366;52.498;13.446;2023-02-15T01:57:52;4.00;99.90
37518;DHT22;23366;52.498;13.446;2023-02-15T02:00:18;4.00;99.90
37518;DHT22;23366;52.498;13.446;2023-02-15T02:02:45;3.90;99.90
37518;DHT22;23366;52.498;13.446;2023-02-15T02:05:11;3.90;99.90
37518;DHT22;23366;52.498;13.446;2023-02-15T02:07:41;3.90;99.90
37518;DHT22;23366;52.498;13.446;2023-02-15T02:10:09;3.80;99.90
37518;DHT22;23366;52.498;13.446;2023-02-15T02:12:35;3.80;99.90
37518;DHT22;23366;52.498;13.446;2023-02-15T02:15:02;3.80;99.90
37518;DHT22;23366;52.498;13.446;2023-02-15T02:17:51;3.80;99.90
37518;DHT22;23366;52.498;13.446;2023-02-15T02:20:28;3.70;99.90
37518;DHT22;23366;52.498;13.446;2023-02-15T02:32:07;3.60;99.90
37518;DHT22;23366;52.498;13.446;2023-02-15T02:34:57;3.50;99.90
37518;DHT22;23366;52.498;13.446;2023-02-15T02:43:10;3.50;99.90
37518;DHT22;23366;52.498;13.446;2023-02-15T02:45:52;3.40;99.90
37518;DHT22;23366;52.498;13.446;2023-02-15T02:48:24;3.40;99.90
37518;DHT22;23366;52.498;13.446;2023-02-15T02:50:50;3.40;99.90
37518;DHT22;23366;52.498;13.446;2023-02-15T02:53:17;3.40;99.90
37518;DHT22;23366;52.498;13.446;2023-02-15T02:55:47;3.30;99.90
37518;DHT22;23366;52.498;13.446;2023-02-15T02:58:25;3.30;99.90
37518;DHT22;23366;52.498;13.446;2023-02-15T03:00:55;3.30;99.90
37518;DHT22;23366;52.498;13.446;2023-02-15T03:05:59;3.30;99.90
37518;DHT22;23366;52.498;13.446;2023-02-15T03:08:40;3.20;99.90
37518;DHT22;23366;52.498;13.446;2023-02-15T03:11:08;3.20;99.90
37518;DHT22;23366;52.498;13.446;2023-02-15T03:13:34;3.10;99.90
37518;DHT22;23366;52.498;13.446;2023-02-15T03:16:01;3.00;99.90
37518;DHT22;23366;52.498;13.446;2023-02-15T03:18:53;3.00;99.90
37518;DHT22;23366;52.498;13.446;2023-02-15T03:21:30;2.90;99.90
37518;DHT22;23366;52.498;13.446;2023-02-15T03:24:20;2.90;99.90
37518;DHT22;23366;52.498;13.446;2023-02-15T03:26:50;2.90;99.90
37518;DHT22;23366;52.498;13.446;2023-02-15T03:29:18;2.90;99.90
37518;DHT22;23366;52.498;13.446;2023-02-15T03:31:47;2.90;99.90
37518;DHT22;23366;52.498;13.446;2023-02-15T03:34:15;2.80;99.90
37518;DHT22;23366;52.498;13.446;2023-02-15T03:36:46;2.90;99.90
37518;DHT22;23366;52.498;13.446;2023-02-15T03:41:55;2.80;99.90
37518;DHT22;23366;52.498;13.446;2023-02-15T03:44:30;2.70;99.90
37518;DHT22;23366;52.498;13.446;2023-02-15T03:49:28;2.60;99.90
37518;DHT22;23366;52.498;13.446;2023-02-15T03:51:56;2.60;99.90
37518;DHT22;23366;52.498;13.446;2023-02-15T03:54:29;2.60;99.90
37518;DHT22;23366;52.498;13.446;2023-02-15T03:57:10;2.60;99.90
37518;DHT22;23366;52.498;13.446;2023-02-15T03:59:55;2.60;99.90
37518;DHT22;23366;52.498;13.446;2023-02-15T04:05:23;2.50;99.90
37518;DHT22;23366;52.498;13.446;2023-02-15T04:07:48;2.40;99.90
37518;DHT22;23366;52.498;13.446;2023-02-15T04:10:15;2.30;99.90
37518;DHT22;23366;52.498;13.446;2023-02-15T04:12:59;2.30;99.90
37518;DHT22;23366;52.498;13.446;2023-02-15T04:15:24;2.20;99.90
37518;DHT22;23366;52.498;13.446;2023-02-15T04:18:08;2.10;99.90
37518;DHT22;23366;52.498;13.446;2023-02-15T04:20:34;2.10;99.90
37518;DHT22;23366;52.498;13.446;2023-02-15T04:23:18;2.10;99.90
37518;DHT22;23366;52.498;13.446;2023-02-15T04:26:05;2.00;99.90
37518;DHT22;23366;52.498;13.446;2023-02-15T04:28:31;1.90;99.90
37518;DHT22;23366;52.498;13.446;2023-02-15T04:30:57;1.90;99.90
37518;DHT22;23366;52.498;13.446;2023-02-15T04:33:22;1.90;99.90
37518;DHT22;23366;52.498;13.446;2023-02-15T04:35:48;1.90;99.90
37518;DHT22;23366;52.498;13.446;2023-02-15T04:38:13;1.80;99.90
37518;DHT22;23366;52.498;13.446;2023-02-15T04:40:39;1.80;99.90
37518;DHT22;23366;52.498;13.446;2023-02-15T04:43:04;1.70;99.90
37518;DHT22;23366;52.498;13.446;2023-02-15T04:45:30;1.70;99.90
37518;DHT22;23366;52.498;13.446;2023-02-15T04:47:55;1.80;99.90
37518;DHT22;23366;52.498;13.446;2023-02-15T04:50:21;1.80;99.90
37518;DHT22;23366;52.498;13.446;2023-02-15T04:52:46;1.70;99.90
37518;DHT22;23366;52.498;13.446;2023-02-15T04:55:12;1.70;99.90
37518;DHT22;23366;52.498;13.446;2023-02-15T04:57:38;1.70;99.90
37518;DHT22;23366;52.498;13.446;2023-02-15T05:00:04;1.60;99.90
37518;DHT22;23366;52.498;13.446;2023-02-15T05:02:29;1.50;99.90
37518;DHT22;23366;52.498;13.446;2023-02-15T05:04:55;1.60;99.90
37518;DHT22;23366;52.498;13.446;2023-02-15T05:07:20;1.60;99.90
37518;DHT22;23366;52.498;13.446;2023-02-15T05:09:46;1.50;99.90
37518;DHT22;23366;52.498;13.446;2023-02-15T05:12:12;1.50;99.90
37518;DHT22;23366;52.498;13.446;2023-02-15T05:14:37;1.40;99.90
37518;DHT22;23366;52.498;13.446;2023-02-15T05:17:03;1.50;99.90
37518;DHT22;23366;52.498;13.446;2023-02-15T05:19:30;1.50;99.90
37518;DHT22;23366;52.498;13.446;2023-02-15T05:21:56;1.50;99.90
37518;DHT22;23366;52.498;13.446;2023-02-15T05:24:21;1.50;99.90
37518;DHT22;23366;52.498;13.446;2023-02-15T05:27:05;1.50;99.90
37518;DHT22;23366;52.498;13.446;2023-02-15T05:29:49;1.50;99.90
37518;DHT22;23366;52.498;13.446;2023-02-15T05:32:16;1.60;99.90
37518;DHT22;23366;52.498;13.446;2023-02-15T05:34:42;1.60;99.90
37518;DHT22;23366;52.498;13.446;2023-02-15T05:37:07;1.60;99.90
37518;DHT22;23366;52.498;13.446;2023-02-15T05:39:33;1.60;99.90
37518;DHT22;23366;52.498;13.446;2023-02-15T05:41:59;1.60;99.90
37518;DHT22;23366;52.498;13.446;2023-02-15T05:44:25;1.60;99.90
37518;DHT22;23366;52.498;13.446;2023-02-15T05:46:51;1.60;99.90
37518;DHT22;23366;52.498;13.446;2023-02-15T05:49:16;1.60;99.90
37518;DHT22;23366;52.498;13.446;2023-02-15T05:51:42;1.70;99.90
37518;DHT22;23366;52.498;13.446;2023-02-15T05:54:07;1.50;99.90
37518;DHT22;23366;52.498;13.446;2023-02-15T05:56:33;1.60;99.90
37518;DHT22;23366;52.498;13.446;2023-02-15T05:58:58;1.50;99.90
37518;DHT22;23366;52.498;13.446;2023-02-15T06:01:24;1.70;99.90
37518;DHT22;23366;52.498;13.446;2023-02-15T06:03:50;1.60;99.90
37518;DHT22;23366;52.498;13.446;2023-02-15T06:06:15;1.60;99.90
37518;DHT22;23366;52.498;13.446;2023-02-15T06:08:41;1.50;99.90
37518;DHT22;23366;52.498;13.446;2023-02-15T06:11:06;1.50;99.90
37518;DHT22;23366;52.498;13.446;2023-02-15T06:13:33;1.50;99.90
37518;DHT22;23366;52.498;13.446;2023-02-15T06:15:58;1.30;99.90
37518;DHT22;23366;52.498;13.446;2023-02-15T06:18:24;1.40;99.90
37518;DHT22;23366;52.498;13.446;2023-02-15T06:20:50;1.20;99.90
37518;DHT22;23366;52.498;13.446;2023-02-15T06:23:18;1.20;99.90
37518;DHT22;23366;52.498;13.446;2023-02-15T06:25:45;1.10;99.90
37518;DHT22;23366;52.498;13.446;2023-02-15T06:28:11;1.20;99.90
37518;DHT22;23366;52.498;13.446;2023-02-15T06:30:36;1.10;99.90
37518;DHT22;23366;52.498;13.446;2023-02-15T06:33:02;1.20;99.90
37518;DHT22;23366;52.498;13.446;2023-02-15T06:35:27;1.20;99.90
37518;DHT22;23366;52.498;13.446;2023-02-15T06:37:53;1.20;99.90
37518;DHT22;23366;52.498;13.446;2023-02-15T06:40:19;1.10;99.90
37518;DHT22;23366;52.498;13.446;2023-02-15T06:42:44;1.20;99.90
37518;DHT22;23366;52.498;13.446;2023-02-15T06:45:10;1.20;99.90
37518;DHT22;23366;52.498;13.446;2023-02-15T06:47:36;1.10;99.90
37518;DHT22;23366;52.498;13.446;2023-02-15T06:50:05;1.10;99.90
37518;DHT22;23366;52.498;13.446;2023-02-15T06:52:33;1.10;99.90
37518;DHT22;23366;52.498;13.446;2023-02-15T06:54:59;1.20;99.90
37518;DHT22;23366;52.498;13.446;2023-02-15T06:57:24;1.30;99.90
37518;DHT22;23366;52.498;13.446;2023-02-15T06:59:50;1.30;99.90
37518;DHT22;23366;52.498;13.446;2023-02-15T07:02:15;1.30;99.90
37518;DHT22;23366;52.498;13.446;2023-02-15T07:04:41;1.40;99.90
37518;DHT22;23366;52.498;13.446;2023-02-15T07:07:10;1.40;99.90
37518;DHT22;23366;52.498;13.446;2023-02-15T07:09:36;1.50;99.90
37518;DHT22;23366;52.498;13.446;2023-02-15T07:12:02;1.50;99.90
37518;DHT22;23366;52.498;13.446;2023-02-15T07:14:46;1.40;99.90
37518;DHT22;23366;52.498;13.446;2023-02-15T07:17:12;1.30;99.90
37518;DHT22;23366;52.498;13.446;2023-02-15T07:19:37;1.20;99.90
37518;DHT22;23366;52.498;13.446;2023-02-15T07:22:03;1.20;99.90
37518;DHT22;23366;52.498;13.446;2023-02-15T07:24:30;1.20;99.90
37518;DHT22;23366;52.498;13.446;2023-02-15T07:26:55;1.30;99.90
37518;DHT22;23366;52.498;13.446;2023-02-15T07:29:22;1.20;99.90
37518;DHT22;23366;52.498;13.446;2023-02-15T07:31:48;1.20;99.90
37518;DHT22;23366;52.498;13.446;2023-02-15T07:34:13;1.30;99.90
37518;DHT22;23366;52.498;13.446;2023-02-15T07:36:39;1.30;99.90
37518;DHT22;23366;52.498;13.446;2023-02-15T07:39:04;1.30;99.90
37518;DHT22;23366;52.498;13.446;2023-02-15T07:41:30;1.30;99.90
37518;DHT22;23366;52.498;13.446;2023-02-15T07:43:55;1.40;99.90
37518;DHT22;23366;52.498;13.446;2023-02-15T07:46:21;1.40;99.90
37518;DHT22;23366;52.498;13.446;2023-02-15T07:48:47;1.40;99.90
37518;DHT22;23366;52.498;13.446;2023-02-15T07:51:13;1.70;99.90
37518;DHT22;23366;52.498;13.446;2023-02-15T07:53:40;1.70;99.90
37518;DHT22;23366;52.498;13.446;2023-02-15T07:56:09;1.70;99.90
37518;DHT22;23366;52.498;13.446;2023-02-15T07:58:35;1.70;99.90
37518;DHT22;23366;52.498;13.446;2023-02-15T08:01:20;1.80;99.90
37518;DHT22;23366;52.498;13.446;2023-02-15T08:03:49;1.80;99.90
37518;DHT22;23366;52.498;13.446;2023-02-15T08:06:15;1.90;99.90
37518;DHT22;23366;52.498;13.446;2023-02-15T08:08:41;1.80;99.90
37518;DHT22;23366;52.498;13.446;2023-02-15T08:11:27;1.80;99.90
37518;DHT22;23366;52.498;13.446;2023-02-15T08:14:13;2.00;99.90
37518;DHT22;23366;52.498;13.446;2023-02-15T08:16:47;2.00;99.90
37518;DHT22;23366;52.498;13.446;2023-02-15T08:19:21;1.90;99.90
37518;DHT22;23366;52.498;13.446;2023-02-15T08:21:50;2.00;99.90
37518;DHT22;23366;52.498;13.446;2023-02-15T08:24:19;2.10;99.90
37518;DHT22;23366;52.498;13.446;2023-02-15T08:26:44;2.00;99.90
37518;DHT22;23366;52.498;13.446;2023-02-15T08:29:12;2.10;99.90
37518;DHT22;23366;52.498;13.446;2023-02-15T08:31:39;2.20;99.90
37518;DHT22;23366;52.498;13.446;2023-02-15T08:34:07;2.30;99.90
37518;DHT22;23366;52.498;13.446;2023-02-15T08:36:33;2.30;99.90
37518;DHT22;23366;52.498;13.446;2023-02-15T08:38:59;2.30;99.90
37518;DHT22;23366;52.498;13.446;2023-02-15T08:41:28;2.20;99.90
37518;DHT22;23366;52.498;13.446;2023-02-15T08:43:57;2.30;99.90
37518;DHT22;23366;52.498;13.446;2023-02-15T08:46:24;2.30;99.90
37518;DHT22;23366;52.498;13.446;2023-02-15T08:48:50;2.40;99.90
37518;DHT22;23366;52.498;13.446;2023-02-15T08:51:21;2.60;99.90
37518;DHT22;23366;52.498;13.446;2023-02-15T08:53:48;2.70;99.90
37518;DHT22;23366;52.498;13.446;2023-02-15T08:56:15;2.80;99.90
37518;DHT22;23366;52.498;13.446;2023-02-15T08:58:40;2.90;99.90
37518;DHT22;23366;52.498;13.446;2023-02-15T09:03:35;3.00;99.90
37518;DHT22;23366;52.498;13.446;2023-02-15T09:06:01;3.00;99.90
37518;DHT22;23366;52.498;13.446;2023-02-15T09:08:28;3.10;99.90
37518;DHT22;23366;52.498;13.446;2023-02-15T09:10:53;3.10;99.90
37518;DHT22;23366;52.498;13.446;2023-02-15T09:13:20;2.90;99.90
37518;DHT22;23366;52.498;13.446;2023-02-15T09:15:46;3.10;99.90
37518;DHT22;23366;52.498;13.446;2023-02-15T09:18:11;3.00;99.90
37518;DHT22;23366;52.498;13.446;2023-02-15T09:20:42;3.10;99.90
37518;DHT22;23366;52.498;13.446;2023-02-15T09:23:08;3.10;99.90
37518;DHT22;23366;52.498;13.446;2023-02-15T09:25:34;3.20;99.90
37518;DHT22;23366;52.498;13.446;2023-02-15T09:27:59;3.40;99.90
37518;DHT22;23366;52.498;13.446;2023-02-15T09:30:25;3.50;99.90
37518;DHT22;23366;52.498;13.446;2023-02-15T09:32:50;3.70;99.90
37518;DHT22;23366;52.498;13.446;2023-02-15T09:35:16;3.60;99.90
37518;DHT22;23366;52.498;13.446;2023-02-15T09:37:42;3.80;99.90
37518;DHT22;23366;52.498;13.446;2023-02-15T09:40:07;3.80;99.90
37518;DHT22;23366;52.498;13.446;2023-02-15T09:43:01;3.90;99.90
37518;DHT22;23366;52.498;13.446;2023-02-15T09:45:58;4.10;99.90
37518;DHT22;23366;52.498;13.446;2023-02-15T09:48:42;4.20;99.90
37518;DHT22;23366;52.498;13.446;2023-02-15T09:51:43;4.20;99.90
37518;DHT22;23366;52.498;13.446;2023-02-15T09:54:31;4.30;99.90
37518;DHT22;23366;52.498;13.446;2023-02-15T09:57:10;4.30;99.90
37518;DHT22;23366;52.498;13.446;2023-02-15T09:59:58;4.40;99.90
37518;DHT22;23366;52.498;13.446;2023-02-15T10:02:56;4.60;99.90
37518;DHT22;23366;52.498;13.446;2023-02-15T10:05:58;4.70;99.90
37518;DHT22;23366;52.498;13.446;2023-02-15T10:08:49;4.90;99.90
37518;DHT22;23366;52.498;13.446;2023-02-15T10:11:33;5.10;99.90
37518;DHT22;23366;52.498;13.446;2023-02-15T10:19:20;5.50;99.90
37518;DHT22;23366;52.498;13.446;2023-02-15T10:27:12;5.60;99.90
37518;DHT22;23366;52.498;13.446;2023-02-15T10:29:42;5.80;99.90
37518;DHT22;23366;52.498;13.446;2023-02-15T10:34:51;5.90;99.90
37518;DHT22;23366;52.498;13.446;2023-02-15T10:37:48;6.00;99.90
37518;DHT22;23366;52.498;13.446;2023-02-15T10:40:36;5.90;99.90
37518;DHT22;23366;52.498;13.446;2023-02-15T10:44:00;5.90;99.90
37518;DHT22;23366;52.498;13.446;2023-02-15T10:49:11;5.90;99.90
37518;DHT22;23366;52.498;13.446;2023-02-15T10:54:36;6.00;99.90
37518;DHT22;23366;52.498;13.446;2023-02-15T10:57:26;6.10;99.90
37518;DHT22;23366;52.498;13.446;2023-02-15T11:00:20;5.80;99.90
37518;DHT22;23366;52.498;13.446;2023-02-15T11:05:53;5.70;99.90
37518;DHT22;23366;52.498;13.446;2023-02-15T11:08:24;5.60;99.90
37518;DHT22;23366;52.498;13.446;2023-02-15T11:10:56;5.50;99.90
37518;DHT22;23366;52.498;13.446;2023-02-15T11:13:26;5.60;99.90
37518;DHT22;23366;52.498;13.446;2023-02-15T11:16:15;5.60;99.90
37518;DHT22;23366;52.498;13.446;2023-02-15T11:18:43;5.60;99.90
37518;DHT22;23366;52.498;13.446;2023-02-15T11:21:18;5.50;99.90
37518;DHT22;23366;52.498;13.446;2023-02-15T11:23:46;5.50;99.90
37518;DHT22;23366;52.498;13.446;2023-02-15T11:26:29;5.50;99.90
37518;DHT22;23366;52.498;13.446;2023-02-15T11:29:15;5.50;99.90
37518;DHT22;23366;52.498;13.446;2023-02-15T11:31:53;5.60;99.90
37518;DHT22;23366;52.498;13.446;2023-02-15T11:34:27;5.70;99.90
37518;DHT22;23366;52.498;13.446;2023-02-15T11:36:58;5.80;99.90
37518;DHT22;23366;52.498;13.446;2023-02-15T11:39:26;5.80;99.90
37518;DHT22;23366;52.498;13.446;2023-02-15T11:41:57;5.80;99.90
37518;DHT22;23366;52.498;13.446;2023-02-15T11:44:31;6.00;99.90
37518;DHT22;23366;52.498;13.446;2023-02-15T11:46:58;5.90;99.90
37518;DHT22;23366;52.498;13.446;2023-02-15T11:49:41;6.10;99.90
37518;DHT22;23366;52.498;13.446;2023-02-15T11:52:13;6.20;99.90
37518;DHT22;23366;52.498;13.446;2023-02-15T11:54:43;6.30;99.90
37518;DHT22;23366;52.498;13.446;2023-02-15T11:57:33;6.30;99.90
37518;DHT22;23366;52.498;13.446;2023-02-15T12:00:10;6.20;99.90
37518;DHT22;23366;52.498;13.446;2023-02-15T12:02:38;6.20;99.90
37518;DHT22;23366;52.498;13.446;2023-02-15T12:05:17;6.20;99.90
37518;DHT22;23366;52.498;13.446;2023-02-15T12:07:48;6.20;99.90
37518;DHT22;23366;52.498;13.446;2023-02-15T12:10:25;6.20;99.90
37518;DHT22;23366;52.498;13.446;2023-02-15T12:15:35;6.50;99.90
37518;DHT22;23366;52.498;13.446;2023-02-15T12:18:01;6.50;99.90
37518;DHT22;23366;52.498;13.446;2023-02-15T12:20:34;6.50;99.90
37518;DHT22;23366;52.498;13.446;2023-02-15T12:23:06;6.60;99.90
37518;DHT22;23366;52.498;13.446;2023-02-15T12:28:04;6.60;99.90
37518;DHT22;23366;52.498;13.446;2023-02-15T12:30:32;6.60;99.90
37518;DHT22;23366;52.498;13.446;2023-02-15T12:33:13;6.60;99.90
37518;DHT22;23366;52.498;13.446;2023-02-15T12:35:39;6.70;99.90
37518;DHT22;23366;52.498;13.446;2023-02-15T12:38:23;6.60;99.90
37518;DHT22;23366;52.498;13.446;2023-02-15T12:43:35;6.70;99.90
37518;DHT22;23366;52.498;13.446;2023-02-15T12:46:25;6.70;99.90
37518;DHT22;23366;52.498;13.446;2023-02-15T12:51:47;6.90;99.90
37518;DHT22;23366;52.498;13.446;2023-02-15T12:54:20;6.90;99.90
37518;DHT22;23366;52.498;13.446;2023-02-15T12:56:50;7.00;99.90
37518;DHT22;23366;52.498;13.446;2023-02-15T12:59:18;7.00;99.90
37518;DHT22;23366;52.498;13.446;2023-02-15T13:01:48;7.10;99.90
37518;DHT22;23366;52.498;13.446;2023-02-15T13:04:28;7.10;99.90
37518;DHT22;23366;52.498;13.446;2023-02-15T13:06:59;7.10;99.90
37518;DHT22;23366;52.498;13.446;2023-02-15T13:12:23;7.30;99.90
37518;DHT22;23366;52.498;13.446;2023-02-15T13:14:52;7.40;99.90
37518;DHT22;23366;52.498;13.446;2023-02-15T13:17:32;7.50;99.90
37518;DHT22;23366;52.498;13.446;2023-02-15T13:20:20;7.60;99.90
37518;DHT22;23366;52.498;13.446;2023-02-15T13:22:50;7.70;99.90
37518;DHT22;23366;52.498;13.446;2023-02-15T13:25:22;7.80;99.90
37518;DHT22;23366;52.498;13.446;2023-02-15T13:27:52;7.90;99.90
37518;DHT22;23366;52.498;13.446;2023-02-15T13:30:35;7.90;99.90
37518;DHT22;23366;52.498;13.446;2023-02-15T13:33:21;7.80;99.90
37518;DHT22;23366;52.498;13.446;2023-02-15T13:36:00;7.80;99.90
37518;DHT22;23366;52.498;13.446;2023-02-15T13:41:04;7.90;99.90
37518;DHT22;23366;52.498;13.446;2023-02-15T13:46:33;8.10;99.90
37518;DHT22;23366;52.498;13.446;2023-02-15T13:55:08;8.20;99.90
37518;DHT22;23366;52.498;13.446;2023-02-15T14:00:31;8.30;99.90
37518;DHT22;23366;52.498;13.446;2023-02-15T14:03:31;8.50;99.90
37518;DHT22;23366;52.498;13.446;2023-02-15T14:11:44;8.60;99.90
37518;DHT22;23366;52.498;13.446;2023-02-15T14:14:38;8.60;99.90
37518;DHT22;23366;52.498;13.446;2023-02-15T14:17:28;8.60;99.90
37518;DHT22;23366;52.498;13.446;2023-02-15T14:20:03;8.70;99.90
37518;DHT22;23366;52.498;13.446;2023-02-15T14:23:04;8.70;99.90
37518;DHT22;23366;52.498;13.446;2023-02-15T14:25:45;8.70;99.90
37518;DHT22;23366;52.498;13.446;2023-02-15T14:28:23;8.70;99.90
37518;DHT22;23366;52.498;13.446;2023-02-15T14:30:53;8.80;99.90
37518;DHT22;23366;52.498;13.446;2023-02-15T14:33:39;8.70;99.90
37518;DHT22;23366;52.498;13.446;2023-02-15T14:36:07;8.80;99.90
37518;DHT22;23366;52.498;13.446;2023-02-15T14:39:06;8.90;99.90
37518;DHT22;23366;52.498;13.446;2023-02-15T14:42:01;8.90;99.90
37518;DHT22;23366;52.498;13.446;2023-02-15T14:44:34;8.90;99.90
37518;DHT22;23366;52.498;13.446;2023-02-15T14:47:15;9.00;99.90
37518;DHT22;23366;52.498;13.446;2023-02-15T14:49:43;9.00;99.90
37518;DHT22;23366;52.498;13.446;2023-02-15T14:52:10;8.90;99.90
37518;DHT22;23366;52.498;13.446;2023-02-15T15:01:57;8.90;99.90
37518;DHT22;23366;52.498;13.446;2023-02-15T15:07:02;8.70;99.90
37518;DHT22;23366;52.498;13.446;2023-02-15T15:09:30;8.70;99.90
37518;DHT22;23366;52.498;13.446;2023-02-15T15:14:53;8.60;99.90
37518;DHT22;23366;52.498;13.446;2023-02-15T15:22:29;8.50;99.90
37518;DHT22;23366;52.498;13.446;2023-02-15T15:25:02;8.50;99.90
37518;DHT22;23366;52.498;13.446;2023-02-15T15:27:50;8.50;99.90
37518;DHT22;23366;52.498;13.446;2023-02-15T15:32:59;8.50;99.90
37518;DHT22;23366;52.498;13.446;2023-02-15T15:38:46;8.50;99.90
37518;DHT22;23366;52.498;13.446;2023-02-15T15:41:40;8.50;99.90
37518;DHT22;23366;52.498;13.446;2023-02-15T15:44:30;8.40;99.90
37518;DHT22;23366;52.498;13.446;2023-02-15T15:47:13;8.40;99.90
37518;DHT22;23366;52.498;13.446;2023-02-15T15:49:42;8.40;99.90
37518;DHT22;23366;52.498;13.446;2023-02-15T15:52:19;8.40;99.90
37518;DHT22;23366;52.498;13.446;2023-02-15T15:54:48;8.30;99.90
37518;DHT22;23366;52.498;13.446;2023-02-15T15:57:30;8.30;99.90
37518;DHT22;23366;52.498;13.446;2023-02-15T15:59:57;8.20;99.90
37518;DHT22;23366;52.498;13.446;2023-02-15T16:02:26;8.20;99.90
37518;DHT22;23366;52.498;13.446;2023-02-15T16:04:52;8.20;99.90
37518;DHT22;23366;52.498;13.446;2023-02-15T16:10:01;8.00;99.90
37518;DHT22;23366;52.498;13.446;2023-02-15T16:12:37;8.00;99.90
37518;DHT22;23366;52.498;13.446;2023-02-15T16:17:45;7.90;99.90
37518;DHT22;23366;52.498;13.446;2023-02-15T16:20:30;7.90;99.90
37518;DHT22;23366;52.498;13.446;2023-02-15T16:25:54;7.70;99.90
37518;DHT22;23366;52.498;13.446;2023-02-15T16:28:22;7.70;99.90
37518;DHT22;23366;52.498;13.446;2023-02-15T16:33:37;7.60;99.90
37518;DHT22;23366;52.498;13.446;2023-02-15T16:36:04;7.70;99.90
37518;DHT22;23366;52.498;13.446;2023-02-15T16:41:12;7.50;99.90
37518;DHT22;23366;52.498;13.446;2023-02-15T16:43:40;7.50;99.90
37518;DHT22;23366;52.498;13.446;2023-02-15T16:46:11;7.50;99.90
37518;DHT22;23366;52.498;13.446;2023-02-15T16:48:41;7.50;99.90
37518;DHT22;23366;52.498;13.446;2023-02-15T16:51:08;7.40;99.90
37518;DHT22;23366;52.498;13.446;2023-02-15T16:53:34;7.40;99.90
37518;DHT22;23366;52.498;13.446;2023-02-15T16:56:02;7.40;99.90
37518;DHT22;23366;52.498;13.446;2023-02-15T16:58:38;7.40;99.90
37518;DHT22;23366;52.498;13.446;2023-02-15T17:01:08;7.40;99.90
37518;DHT22;23366;52.498;13.446;2023-02-15T17:03:34;7.40;99.90
37518;DHT22;23366;52.498;13.446;2023-02-15T17:06:03;7.30;99.90
37518;DHT22;23366;52.498;13.446;2023-02-15T17:08:42;7.30;99.90
37518;DHT22;23366;52.498;13.446;2023-02-15T17:11:14;7.20;99.90
37518;DHT22;23366;52.498;13.446;2023-02-15T17:16:33;7.10;99.90
37518;DHT22;23366;52.498;13.446;2023-02-15T17:19:08;7.10;99.90
37518;DHT22;23366;52.498;13.446;2023-02-15T17:21:40;7.10;99.90
37518;DHT22;23366;52.498;13.446;2023-02-15T17:24:19;7.10;99.90
37518;DHT22;23366;52.498;13.446;2023-02-15T17:26:50;7.10;99.90
37518;DHT22;23366;52.498;13.446;2023-02-15T17:29:36;7.00;99.90
37518;DHT22;23366;52.498;13.446;2023-02-15T17:32:03;7.00;99.90
37518;DHT22;23366;52.498;13.446;2023-02-15T17:37:25;7.00;99.90
37518;DHT22;23366;52.498;13.446;2023-02-15T17:39:51;6.90;99.90
37518;DHT22;23366;52.498;13.446;2023-02-15T17:42:17;6.90;99.90
37518;DHT22;23366;52.498;13.446;2023-02-15T17:44:43;6.90;99.90
37518;DHT22;23366;52.498;13.446;2023-02-15T17:47:15;6.90;99.90
37518;DHT22;23366;52.498;13.446;2023-02-15T17:49:42;6.90;99.90
37518;DHT22;23366;52.498;13.446;2023-02-15T17:52:11;6.80;99.90
37518;DHT22;23366;52.498;13.446;2023-02-15T17:54:39;6.80;99.90
37518;DHT22;23366;52.498;13.446;2023-02-15T17:57:23;6.80;99.90
37518;DHT22;23366;52.498;13.446;2023-02-15T17:59:50;6.80;99.90
37518;DHT22;23366;52.498;13.446;2023-02-15T18:02:35;6.70;99.90
37518;DHT22;23366;52.498;13.446;2023-02-15T18:05:20;6.70;99.90
37518;DHT22;23366;52.498;13.446;2023-02-15T18:08:09;6.70;99.90